sensor_id;sensor_type;location;lat;lon;timestamp;pressure;altitude;pressure_sealevel;temperature;humidity
57763;BME280;43592;42.524;12.052;2022-07-15T00:01:57;96932.13;;;18.71;100.00
57763;BME280;43592;42.524;12.052;2022-07-15T00:04:22;96925.94;;;18.70;100.00
57763;BME280;43592;42.524;12.052;2022-07-15T00:06:48;96917.84;;;18.74;100.00
57763;BME280;43592;42.524;12.052;2022-07-15T00:09:13;96917.84;;;18.74;100.00
57763;BME280;43592;42.524;12.052;2022-07-15T00:11:39;96919.38;;;18.71;100.00
57763;BME280;43592;42.524;12.052;2022-07-15T00:14:04;96908.13;;;18.69;100.00
57763;BME280;43592;42.524;12.052;2022-07-15T00:16:30;96910.06;;;18.65;100.00
57763;BME280;43592;42.524;12.052;2022-07-15T00:18:55;96907.34;;;18.65;100.00
57763;BME280;43592;42.524;12.052;2022-07-15T00:21:20;96905.81;;;18.64;100.00
57763;BME280;43592;42.524;12.052;2022-07-15T00:23:46;96903.84;;;18.65;100.00
57763;BME280;43592;42.524;12.052;2022-07-15T00:26:11;96906.56;;;18.68;100.00
57763;BME280;43592;42.524;12.052;2022-07-15T00:28:37;96912.00;;;18.65;100.00
57763;BME280;43592;42.524;12.052;2022-07-15T00:31:02;96912.75;;;18.58;100.00
57763;BME280;43592;42.524;12.052;2022-07-15T00:33:28;96917.78;;;18.52;100.00
57763;BME280;43592;42.524;12.052;2022-07-15T00:35:53;96905.41;;;18.51;100.00
57763;BME280;43592;42.524;12.052;2022-07-15T00:38:19;96905.78;;;18.53;100.00
57763;BME280;43592;42.524;12.052;2022-07-15T00:40:45;96910.44;;;18.53;100.00
57763;BME280;43592;42.524;12.052;2022-07-15T00:43:12;96894.53;;;18.48;100.00
57763;BME280;43592;42.524;12.052;2022-07-15T00:45:37;96901.09;;;18.39;100.00
57763;BME280;43592;42.524;12.052;2022-07-15T00:48:03;96896.81;;;18.31;100.00
57763;BME280;43592;42.524;12.052;2022-07-15T00:50:29;96892.56;;;18.27;100.00
57763;BME280;43592;42.524;12.052;2022-07-15T00:52:56;96895.66;;;18.25;100.00
57763;BME280;43592;42.524;12.052;2022-07-15T00:55:23;96889.84;;;18.27;100.00
57763;BME280;43592;42.524;12.052;2022-07-15T00:57:49;96891.00;;;18.26;100.00
57763;BME280;43592;42.524;12.052;2022-07-15T01:00:15;96883.28;;;18.21;100.00
57763;BME280;43592;42.524;12.052;2022-07-15T01:02:41;96888.66;;;18.13;100.00
57763;BME280;43592;42.524;12.052;2022-07-15T01:05:10;96887.09;;;18.09;100.00
57763;BME280;43592;42.524;12.052;2022-07-15T01:07:36;96879.34;;;18.04;100.00
57763;BME280;43592;42.524;12.052;2022-07-15T01:10:01;96877.78;;;17.99;100.00
57763;BME280;43592;42.524;12.052;2022-07-15T01:12:27;96879.31;;;17.97;100.00
57763;BME280;43592;42.524;12.052;2022-07-15T01:14:53;96889.38;;;17.96;100.00
57763;BME280;43592;42.524;12.052;2022-07-15T01:17:18;96879.31;;;17.97;100.00
57763;BME280;43592;42.524;12.052;2022-07-15T01:19:44;96871.59;;;17.99;100.00
57763;BME280;43592;42.524;12.052;2022-07-15T01:22:09;96878.53;;;18.00;100.00
57763;BME280;43592;42.524;12.052;2022-07-15T01:24:35;96868.47;;;18.00;100.00
57763;BME280;43592;42.524;12.052;2022-07-15T01:27:01;96878.53;;;18.00;100.00
57763;BME280;43592;42.524;12.052;2022-07-15T01:29:27;96880.06;;;17.97;100.00
57763;BME280;43592;42.524;12.052;2022-07-15T01:31:53;96880.06;;;17.93;100.00
57763;BME280;43592;42.524;12.052;2022-07-15T01:34:18;96871.53;;;17.88;100.00
57763;BME280;43592;42.524;12.052;2022-07-15T01:36:44;96869.97;;;17.83;100.00
57763;BME280;43592;42.524;12.052;2022-07-15T01:39:10;96866.88;;;17.81;100.00
57763;BME280;43592;42.524;12.052;2022-07-15T01:41:35;96861.06;;;17.79;100.00
57763;BME280;43592;42.524;12.052;2022-07-15T01:44:01;96861.41;;;17.78;100.00
57763;BME280;43592;42.524;12.052;2022-07-15T01:46:26;96855.28;;;17.81;100.00
57763;BME280;43592;42.524;12.052;2022-07-15T01:48:52;96854.13;;;17.82;100.00
57763;BME280;43592;42.524;12.052;2022-07-15T01:51:36;96854.53;;;17.84;100.00
57763;BME280;43592;42.524;12.052;2022-07-15T01:54:01;96854.91;;;17.82;100.00
57763;BME280;43592;42.524;12.052;2022-07-15T01:56:27;96846.41;;;17.84;100.00
57763;BME280;43592;42.524;12.052;2022-07-15T01:58:53;96842.53;;;17.85;100.00
57763;BME280;43592;42.524;12.052;2022-07-15T02:01:18;96846.41;;;17.91;100.00
57763;BME280;43592;42.524;12.052;2022-07-15T02:03:44;96847.97;;;17.92;100.00
57763;BME280;43592;42.524;12.052;2022-07-15T02:06:10;96840.59;;;17.89;100.00
57763;BME280;43592;42.524;12.052;2022-07-15T02:08:36;96839.47;;;17.86;100.00
57763;BME280;43592;42.524;12.052;2022-07-15T02:11:01;96836.75;;;17.86;100.00
57763;BME280;43592;42.524;12.052;2022-07-15T02:13:27;96836.75;;;17.86;100.00
57763;BME280;43592;42.524;12.052;2022-07-15T02:15:52;96830.94;;;17.84;100.00
57763;BME280;43592;42.524;12.052;2022-07-15T02:18:18;96831.31;;;17.83;100.00
57763;BME280;43592;42.524;12.052;2022-07-15T02:20:43;96825.13;;;17.82;100.00
57763;BME280;43592;42.524;12.052;2022-07-15T02:23:09;96832.47;;;17.82;100.00
57763;BME280;43592;42.524;12.052;2022-07-15T02:25:34;96832.84;;;17.80;100.00
57763;BME280;43592;42.524;12.052;2022-07-15T02:28:01;96833.22;;;17.79;100.00
57763;BME280;43592;42.524;12.052;2022-07-15T02:30:37;96834.00;;;17.79;100.00
57763;BME280;43592;42.524;12.052;2022-07-15T02:33:03;96831.63;;;17.78;100.00
57763;BME280;43592;42.524;12.052;2022-07-15T02:35:29;96825.06;;;17.75;100.00
57763;BME280;43592;42.524;12.052;2022-07-15T02:37:55;96828.16;;;17.73;100.00
57763;BME280;43592;42.524;12.052;2022-07-15T02:40:20;96831.25;;;17.76;100.00
57763;BME280;43592;42.524;12.052;2022-07-15T02:42:47;96831.63;;;17.78;100.00
57763;BME280;43592;42.524;12.052;2022-07-15T02:45:15;96823.19;;;17.83;100.00
57763;BME280;43592;42.524;12.052;2022-07-15T02:47:41;96819.72;;;17.86;100.00
57763;BME280;43592;42.524;12.052;2022-07-15T02:50:06;96820.50;;;17.86;100.00
57763;BME280;43592;42.524;12.052;2022-07-15T02:52:32;96819.72;;;17.86;100.00
57763;BME280;43592;42.524;12.052;2022-07-15T02:54:57;96817.00;;;17.86;100.00
57763;BME280;43592;42.524;12.052;2022-07-15T02:57:23;96813.16;;;17.87;100.00
57763;BME280;43592;42.524;12.052;2022-07-15T02:59:49;96822.03;;;17.87;100.00
57763;BME280;43592;42.524;12.052;2022-07-15T03:02:14;96819.72;;;17.86;100.00
57763;BME280;43592;42.524;12.052;2022-07-15T03:04:40;96812.75;;;17.88;100.00
57763;BME280;43592;42.524;12.052;2022-07-15T03:07:05;96820.50;;;17.93;100.00
57763;BME280;43592;42.524;12.052;2022-07-15T03:09:31;96813.19;;;17.98;100.00
57763;BME280;43592;42.524;12.052;2022-07-15T03:11:56;96818.22;;;17.99;100.00
57763;BME280;43592;42.524;12.052;2022-07-15T03:14:22;96812.44;;;18.01;100.00
57763;BME280;43592;42.524;12.052;2022-07-15T03:16:47;96808.16;;;18.00;100.00
57763;BME280;43592;42.524;12.052;2022-07-15T03:19:12;96814.34;;;18.00;100.00
57763;BME280;43592;42.524;12.052;2022-07-15T03:21:38;96807.38;;;17.99;100.00
57763;BME280;43592;42.524;12.052;2022-07-15T03:24:03;96805.44;;;17.96;100.00
57763;BME280;43592;42.524;12.052;2022-07-15T03:26:29;96806.59;;;17.95;100.00
57763;BME280;43592;42.524;12.052;2022-07-15T03:28:54;96813.16;;;17.94;100.00
57763;BME280;43592;42.524;12.052;2022-07-15T03:31:20;96813.16;;;17.94;100.00
57763;BME280;43592;42.524;12.052;2022-07-15T03:33:45;96813.19;;;17.98;100.00
57763;BME280;43592;42.524;12.052;2022-07-15T03:36:11;96815.91;;;18.01;100.00
57763;BME280;43592;42.524;12.052;2022-07-15T03:38:36;96817.44;;;17.99;100.00
57763;BME280;43592;42.524;12.052;2022-07-15T03:41:02;96813.94;;;17.94;100.00
57763;BME280;43592;42.524;12.052;2022-07-15T03:43:27;96809.28;;;17.91;100.00
57763;BME280;43592;42.524;12.052;2022-07-15T03:45:54;96806.97;;;17.90;100.00
57763;BME280;43592;42.524;12.052;2022-07-15T03:48:21;96814.31;;;17.89;100.00
57763;BME280;43592;42.524;12.052;2022-07-15T03:50:46;96813.16;;;17.87;100.00
57763;BME280;43592;42.524;12.052;2022-07-15T03:53:12;96806.97;;;17.86;100.00
57763;BME280;43592;42.524;12.052;2022-07-15T03:55:38;96804.28;;;17.86;100.00
57763;BME280;43592;42.524;12.052;2022-07-15T03:58:04;96808.09;;;17.85;100.00
57763;BME280;43592;42.524;12.052;2022-07-15T04:00:29;96810.81;;;17.85;100.00
57763;BME280;43592;42.524;12.052;2022-07-15T04:02:55;96814.69;;;17.88;100.00
57763;BME280;43592;42.524;12.052;2022-07-15T04:05:20;96807.34;;;17.88;100.00
57763;BME280;43592;42.524;12.052;2022-07-15T04:07:46;96814.31;;;17.89;100.00
57763;BME280;43592;42.524;12.052;2022-07-15T04:10:12;96806.22;;;17.89;100.00
57763;BME280;43592;42.524;12.052;2022-07-15T04:12:38;96804.28;;;17.90;100.00
57763;BME280;43592;42.524;12.052;2022-07-15T04:15:03;96811.22;;;17.91;100.00
57763;BME280;43592;42.524;12.052;2022-07-15T04:17:29;96812.00;;;17.91;100.00
57763;BME280;43592;42.524;12.052;2022-07-15T04:19:55;96807.34;;;17.88;100.00
57763;BME280;43592;42.524;12.052;2022-07-15T04:22:20;96803.09;;;17.84;100.00
57763;BME280;43592;42.524;12.052;2022-07-15T04:24:46;96807.34;;;17.81;100.00
57763;BME280;43592;42.524;12.052;2022-07-15T04:27:12;96803.06;;;17.80;100.00
57763;BME280;43592;42.524;12.052;2022-07-15T04:29:37;96810.41;;;17.80;100.00
57763;BME280;43592;42.524;12.052;2022-07-15T04:32:03;96809.66;;;17.79;100.00
57763;BME280;43592;42.524;12.052;2022-07-15T04:34:29;96803.06;;;17.80;100.00
57763;BME280;43592;42.524;12.052;2022-07-15T04:36:55;96806.94;;;17.83;100.00
57763;BME280;43592;42.524;12.052;2022-07-15T04:39:20;96803.50;;;17.89;100.00
57763;BME280;43592;42.524;12.052;2022-07-15T04:41:45;96805.81;;;17.94;100.00
57763;BME280;43592;42.524;12.052;2022-07-15T04:44:11;96806.59;;;17.99;100.00
57763;BME280;43592;42.524;12.052;2022-07-15T04:46:36;96804.31;;;18.04;100.00
57763;BME280;43592;42.524;12.052;2022-07-15T04:49:02;96805.06;;;18.08;100.00
57763;BME280;43592;42.524;12.052;2022-07-15T04:51:46;96796.56;;;18.17;100.00
57763;BME280;43592;42.524;12.052;2022-07-15T04:54:11;96801.25;;;18.24;100.00
57763;BME280;43592;42.524;12.052;2022-07-15T04:56:36;96799.69;;;18.30;100.00
57763;BME280;43592;42.524;12.052;2022-07-15T04:59:02;96808.22;;;18.35;100.00
57763;BME280;43592;42.524;12.052;2022-07-15T05:01:28;96809.78;;;18.44;100.00
57763;BME280;43592;42.524;12.052;2022-07-15T05:03:53;96798.56;;;18.49;100.00
57763;BME280;43592;42.524;12.052;2022-07-15T05:06:19;96803.97;;;18.56;100.00
57763;BME280;43592;42.524;12.052;2022-07-15T05:08:44;96804.75;;;18.60;100.00
57763;BME280;43592;42.524;12.052;2022-07-15T05:11:10;96805.13;;;18.62;99.73
57763;BME280;43592;42.524;12.052;2022-07-15T05:13:36;96808.63;;;18.66;98.72
57763;BME280;43592;42.524;12.052;2022-07-15T05:16:01;96808.22;;;18.68;96.60
57763;BME280;43592;42.524;12.052;2022-07-15T05:18:27;96800.88;;;18.72;95.38
57763;BME280;43592;42.524;12.052;2022-07-15T05:20:52;96805.94;;;18.77;94.34
57763;BME280;43592;42.524;12.052;2022-07-15T05:23:18;96803.97;;;18.84;94.90
57763;BME280;43592;42.524;12.052;2022-07-15T05:25:44;96803.97;;;18.95;95.34
57763;BME280;43592;42.524;12.052;2022-07-15T05:28:10;96799.31;;;19.06;96.02
57763;BME280;43592;42.524;12.052;2022-07-15T05:30:36;96806.22;;;19.22;97.21
57763;BME280;43592;42.524;12.052;2022-07-15T05:33:02;96806.19;;;19.36;96.43
57763;BME280;43592;42.524;12.052;2022-07-15T05:35:28;96803.81;;;19.52;97.25
57763;BME280;43592;42.524;12.052;2022-07-15T05:37:54;96803.38;;;19.72;95.98
57763;BME280;43592;42.524;12.052;2022-07-15T05:40:19;96809.88;;;19.92;96.37
57763;BME280;43592;42.524;12.052;2022-07-15T05:42:44;96807.06;;;20.10;94.88
57763;BME280;43592;42.524;12.052;2022-07-15T05:45:11;96817.06;;;20.28;95.48
57763;BME280;43592;42.524;12.052;2022-07-15T05:47:37;96811.88;;;20.48;95.71
57763;BME280;43592;42.524;12.052;2022-07-15T05:50:02;96816.81;;;20.63;94.78
57763;BME280;43592;42.524;12.052;2022-07-15T05:52:28;96817.06;;;20.80;93.70
57763;BME280;43592;42.524;12.052;2022-07-15T05:54:53;96821.91;;;21.03;92.64
57763;BME280;43592;42.524;12.052;2022-07-15T05:57:19;96818.94;;;21.28;90.90
57763;BME280;43592;42.524;12.052;2022-07-15T05:59:44;96824.91;;;21.57;91.29
57763;BME280;43592;42.524;12.052;2022-07-15T06:02:10;96832.34;;;21.84;89.21
57763;BME280;43592;42.524;12.052;2022-07-15T06:04:36;96826.53;;;22.12;88.57
57763;BME280;43592;42.524;12.052;2022-07-15T06:07:02;96827.06;;;22.58;86.15
57763;BME280;43592;42.524;12.052;2022-07-15T06:09:28;96826.44;;;23.41;80.96
57763;BME280;43592;42.524;12.052;2022-07-15T06:11:53;96826.22;;;24.48;76.83
57763;BME280;43592;42.524;12.052;2022-07-15T06:14:19;96820.16;;;25.64;71.99
57763;BME280;43592;42.524;12.052;2022-07-15T06:16:44;96830.94;;;26.64;67.39
57763;BME280;43592;42.524;12.052;2022-07-15T06:19:10;96824.09;;;27.51;63.45
57763;BME280;43592;42.524;12.052;2022-07-15T06:21:36;96826.38;;;28.18;59.83
57763;BME280;43592;42.524;12.052;2022-07-15T06:24:02;96825.66;;;28.68;58.25
57763;BME280;43592;42.524;12.052;2022-07-15T06:26:27;96821.75;;;28.96;56.53
57763;BME280;43592;42.524;12.052;2022-07-15T06:28:53;96826.81;;;29.44;55.30
57763;BME280;43592;42.524;12.052;2022-07-15T06:31:19;96829.19;;;30.06;53.71
57763;BME280;43592;42.524;12.052;2022-07-15T06:33:44;96831.59;;;30.65;52.25
57763;BME280;43592;42.524;12.052;2022-07-15T06:36:10;96828.97;;;31.19;50.67
57763;BME280;43592;42.524;12.052;2022-07-15T06:38:35;96830.31;;;31.47;49.05
57763;BME280;43592;42.524;12.052;2022-07-15T06:41:00;96829.75;;;31.58;48.26
57763;BME280;43592;42.524;12.052;2022-07-15T06:43:26;96828.25;;;31.87;46.95
57763;BME280;43592;42.524;12.052;2022-07-15T06:45:51;96826.06;;;32.20;46.73
57763;BME280;43592;42.524;12.052;2022-07-15T06:48:17;96824.88;;;32.57;44.92
57763;BME280;43592;42.524;12.052;2022-07-15T06:50:43;96824.00;;;33.01;44.52
57763;BME280;43592;42.524;12.052;2022-07-15T06:53:08;96830.84;;;33.05;43.79
57763;BME280;43592;42.524;12.052;2022-07-15T06:55:34;96832.72;;;33.14;43.40
57763;BME280;43592;42.524;12.052;2022-07-15T06:57:59;96826.19;;;33.17;43.68
57763;BME280;43592;42.524;12.052;2022-07-15T07:00:25;96824.25;;;33.23;43.34
57763;BME280;43592;42.524;12.052;2022-07-15T07:02:50;96824.72;;;33.42;42.78
57763;BME280;43592;42.524;12.052;2022-07-15T07:05:16;96824.06;;;33.73;41.85
57763;BME280;43592;42.524;12.052;2022-07-15T07:07:41;96809.94;;;34.03;41.51
57763;BME280;43592;42.524;12.052;2022-07-15T07:10:07;96813.41;;;34.24;40.95
57763;BME280;43592;42.524;12.052;2022-07-15T07:12:33;96814.56;;;34.43;39.81
57763;BME280;43592;42.524;12.052;2022-07-15T07:14:58;96815.97;;;34.59;39.28
57763;BME280;43592;42.524;12.052;2022-07-15T07:17:27;96813.47;;;34.73;39.26
57763;BME280;43592;42.524;12.052;2022-07-15T07:19:52;96818.81;;;34.76;39.12
57763;BME280;43592;42.524;12.052;2022-07-15T07:22:17;96818.16;;;34.98;39.09
57763;BME280;43592;42.524;12.052;2022-07-15T07:24:43;96813.25;;;35.30;38.00
57763;BME280;43592;42.524;12.052;2022-07-15T07:27:10;96820.34;;;35.37;38.46
57763;BME280;43592;42.524;12.052;2022-07-15T07:29:35;96816.09;;;35.53;37.67
57763;BME280;43592;42.524;12.052;2022-07-15T07:32:01;96820.69;;;35.62;37.96
57763;BME280;43592;42.524;12.052;2022-07-15T07:34:27;96822.69;;;35.56;36.88
57763;BME280;43592;42.524;12.052;2022-07-15T07:36:53;96815.13;;;35.56;37.39
57763;BME280;43592;42.524;12.052;2022-07-15T07:39:18;96818.72;;;35.90;37.03
57763;BME280;43592;42.524;12.052;2022-07-15T07:41:44;96823.03;;;36.08;37.07
57763;BME280;43592;42.524;12.052;2022-07-15T07:44:09;96823.53;;;36.35;35.57
57763;BME280;43592;42.524;12.052;2022-07-15T07:46:35;96808.31;;;36.64;34.41
57763;BME280;43592;42.524;12.052;2022-07-15T07:49:00;96808.00;;;36.84;34.05
57763;BME280;43592;42.524;12.052;2022-07-15T07:51:26;96813.53;;;37.07;33.52
57763;BME280;43592;42.524;12.052;2022-07-15T07:53:51;96812.97;;;37.14;33.11
57763;BME280;43592;42.524;12.052;2022-07-15T07:56:17;96809.69;;;37.16;31.67
57763;BME280;43592;42.524;12.052;2022-07-15T07:58:42;96806.94;;;37.04;32.80
57763;BME280;43592;42.524;12.052;2022-07-15T08:01:08;96806.44;;;37.06;31.75
57763;BME280;43592;42.524;12.052;2022-07-15T08:03:33;96805.63;;;37.11;32.74
57763;BME280;43592;42.524;12.052;2022-07-15T08:05:59;96806.59;;;37.19;33.16
57763;BME280;43592;42.524;12.052;2022-07-15T08:08:24;96801.41;;;37.51;33.75
57763;BME280;43592;42.524;12.052;2022-07-15T08:10:51;96804.22;;;37.82;32.33
57763;BME280;43592;42.524;12.052;2022-07-15T08:13:18;96797.97;;;37.70;32.25
57763;BME280;43592;42.524;12.052;2022-07-15T08:15:44;96803.47;;;37.81;31.53
57763;BME280;43592;42.524;12.052;2022-07-15T08:18:10;96801.56;;;38.01;30.86
57763;BME280;43592;42.524;12.052;2022-07-15T08:20:35;96805.72;;;38.18;28.80
57763;BME280;43592;42.524;12.052;2022-07-15T08:23:01;96801.50;;;38.42;27.60
57763;BME280;43592;42.524;12.052;2022-07-15T08:25:28;96791.94;;;38.56;26.61
57763;BME280;43592;42.524;12.052;2022-07-15T08:27:54;96792.34;;;38.66;26.14
57763;BME280;43592;42.524;12.052;2022-07-15T08:30:20;96787.44;;;38.72;26.11
57763;BME280;43592;42.524;12.052;2022-07-15T08:32:45;96800.28;;;38.62;25.69
57763;BME280;43592;42.524;12.052;2022-07-15T08:35:11;96797.53;;;38.26;26.02
57763;BME280;43592;42.524;12.052;2022-07-15T08:37:36;96799.75;;;38.09;25.89
57763;BME280;43592;42.524;12.052;2022-07-15T08:40:03;96792.66;;;38.08;25.75
57763;BME280;43592;42.524;12.052;2022-07-15T08:42:28;96794.44;;;38.05;26.06
57763;BME280;43592;42.524;12.052;2022-07-15T08:44:54;96799.53;;;38.31;25.60
57763;BME280;43592;42.524;12.052;2022-07-15T08:47:19;96789.13;;;38.32;24.09
57763;BME280;43592;42.524;12.052;2022-07-15T08:49:46;96797.03;;;38.28;24.29
57763;BME280;43592;42.524;12.052;2022-07-15T08:52:13;96792.06;;;38.15;24.83
57763;BME280;43592;42.524;12.052;2022-07-15T08:54:39;96792.66;;;38.08;24.76
57763;BME280;43592;42.524;12.052;2022-07-15T08:57:04;96804.00;;;38.46;24.27
57763;BME280;43592;42.524;12.052;2022-07-15T08:59:30;96790.16;;;38.59;23.27
57763;BME280;43592;42.524;12.052;2022-07-15T09:01:55;96789.47;;;38.72;23.68
57763;BME280;43592;42.524;12.052;2022-07-15T09:04:21;96789.97;;;38.76;23.34
57763;BME280;43592;42.524;12.052;2022-07-15T09:06:48;96787.44;;;38.72;22.43
57763;BME280;43592;42.524;12.052;2022-07-15T09:12:04;96790.16;;;38.29;21.96
57763;BME280;43592;42.524;12.052;2022-07-15T09:14:31;96784.63;;;38.23;23.24
57763;BME280;43592;42.524;12.052;2022-07-15T09:22:19;96782.69;;;38.12;22.42
57763;BME280;43592;42.524;12.052;2022-07-15T09:24:44;96777.59;;;38.16;21.97
57763;BME280;43592;42.524;12.052;2022-07-15T09:29:54;96778.72;;;38.57;22.13
57763;BME280;43592;42.524;12.052;2022-07-15T09:32:38;96780.16;;;38.63;21.76
57763;BME280;43592;42.524;12.052;2022-07-15T09:35:22;96779.47;;;38.57;22.83
57763;BME280;43592;42.524;12.052;2022-07-15T09:38:05;96784.25;;;38.62;21.45
57763;BME280;43592;42.524;12.052;2022-07-15T09:40:32;96778.66;;;38.62;21.65
57763;BME280;43592;42.524;12.052;2022-07-15T09:43:03;96775.88;;;38.87;21.81
57763;BME280;43592;42.524;12.052;2022-07-15T09:45:30;96780.72;;;38.81;20.85
57763;BME280;43592;42.524;12.052;2022-07-15T09:48:05;96773.75;;;38.69;21.77
57763;BME280;43592;42.524;12.052;2022-07-15T09:50:35;96772.09;;;38.60;21.54
57763;BME280;43592;42.524;12.052;2022-07-15T09:53:07;96772.84;;;38.60;21.78
57763;BME280;43592;42.524;12.052;2022-07-15T09:55:35;96766.44;;;38.66;21.24
57763;BME280;43592;42.524;12.052;2022-07-15T09:58:03;96770.72;;;38.67;20.94
57763;BME280;43592;42.524;12.052;2022-07-15T10:00:31;96758.97;;;38.49;21.35
57763;BME280;43592;42.524;12.052;2022-07-15T10:02:57;96770.53;;;38.34;21.55
57763;BME280;43592;42.524;12.052;2022-07-15T10:05:22;96762.78;;;38.22;21.44
57763;BME280;43592;42.524;12.052;2022-07-15T10:07:48;96763.38;;;38.14;21.05
57763;BME280;43592;42.524;12.052;2022-07-15T10:10:15;96758.63;;;38.04;20.82
57763;BME280;43592;42.524;12.052;2022-07-15T10:15:24;96751.75;;;37.74;21.07
57763;BME280;43592;42.524;12.052;2022-07-15T10:18:06;96759.09;;;37.78;20.96
57763;BME280;43592;42.524;12.052;2022-07-15T10:20:39;96759.75;;;37.89;21.88
57763;BME280;43592;42.524;12.052;2022-07-15T10:28:46;96742.72;;;38.23;22.03
57763;BME280;43592;42.524;12.052;2022-07-15T10:31:24;96744.84;;;38.36;21.34
57763;BME280;43592;42.524;12.052;2022-07-15T10:37:13;96738.03;;;38.61;21.44
57763;BME280;43592;42.524;12.052;2022-07-15T10:39:18;96741.09;;;38.58;19.48
57763;BME280;43592;42.524;12.052;2022-07-15T10:44:12;96731.44;;;39.02;21.05
57763;BME280;43592;42.524;12.052;2022-07-15T10:46:37;96730.44;;;39.19;20.69
57763;BME280;43592;42.524;12.052;2022-07-15T10:54:00;96731.38;;;39.78;20.18
57763;BME280;43592;42.524;12.052;2022-07-15T10:56:30;96726.56;;;39.92;19.62
57763;BME280;43592;42.524;12.052;2022-07-15T10:59:08;96722.97;;;39.78;19.14
57763;BME280;43592;42.524;12.052;2022-07-15T11:01:40;96726.78;;;39.62;18.74
57763;BME280;43592;42.524;12.052;2022-07-15T11:04:14;96713.19;;;39.66;17.81
57763;BME280;43592;42.524;12.052;2022-07-15T11:12:08;96716.97;;;39.87;17.75
57763;BME280;43592;42.524;12.052;2022-07-15T11:17:08;96714.34;;;40.35;18.33
57763;BME280;43592;42.524;12.052;2022-07-15T11:19:35;96714.03;;;40.65;17.94
57763;BME280;43592;42.524;12.052;2022-07-15T11:22:00;96711.84;;;40.84;18.01
57763;BME280;43592;42.524;12.052;2022-07-15T11:24:26;96701.97;;;41.04;18.46
57763;BME280;43592;42.524;12.052;2022-07-15T11:26:53;96701.81;;;41.23;17.92
57763;BME280;43592;42.524;12.052;2022-07-15T11:29:18;96704.63;;;41.23;17.43
57763;BME280;43592;42.524;12.052;2022-07-15T11:31:44;96700.47;;;41.17;18.30
57763;BME280;43592;42.524;12.052;2022-07-15T11:34:10;96697.72;;;41.24;17.95
57763;BME280;43592;42.524;12.052;2022-07-15T11:36:36;96697.59;;;41.30;17.68
57763;BME280;43592;42.524;12.052;2022-07-15T11:39:02;96684.31;;;41.31;17.75
57763;BME280;43592;42.524;12.052;2022-07-15T11:41:27;96679.84;;;41.14;18.14
57763;BME280;43592;42.524;12.052;2022-07-15T11:44:11;96690.88;;;40.99;18.55
57763;BME280;43592;42.524;12.052;2022-07-15T11:46:56;96691.69;;;40.73;18.38
57763;BME280;43592;42.524;12.052;2022-07-15T11:51:54;96675.63;;;40.33;18.92
57763;BME280;43592;42.524;12.052;2022-07-15T11:54:19;96692.75;;;40.16;20.49
57763;BME280;43592;42.524;12.052;2022-07-15T11:56:58;96681.44;;;40.09;21.05
57763;BME280;43592;42.524;12.052;2022-07-15T11:59:24;96683.16;;;39.99;21.07
57763;BME280;43592;42.524;12.052;2022-07-15T12:02:06;96675.84;;;40.22;21.79
57763;BME280;43592;42.524;12.052;2022-07-15T12:04:31;96670.25;;;40.35;21.34
57763;BME280;43592;42.524;12.052;2022-07-15T12:06:57;96668.09;;;40.42;20.85
57763;BME280;43592;42.524;12.052;2022-07-15T12:09:23;96671.13;;;40.44;21.37
57763;BME280;43592;42.524;12.052;2022-07-15T12:11:49;96665.06;;;40.53;20.94
57763;BME280;43592;42.524;12.052;2022-07-15T12:14:22;96662.56;;;40.76;20.94
57763;BME280;43592;42.524;12.052;2022-07-15T12:16:51;96664.31;;;40.52;20.75
57763;BME280;43592;42.524;12.052;2022-07-15T12:19:18;96661.16;;;40.16;21.35
57763;BME280;43592;42.524;12.052;2022-07-15T12:21:45;96674.53;;;40.10;22.22
57763;BME280;43592;42.524;12.052;2022-07-15T12:24:12;96665.03;;;40.00;22.74
57763;BME280;43592;42.524;12.052;2022-07-15T12:26:39;96656.97;;;39.96;21.99
57763;BME280;43592;42.524;12.052;2022-07-15T12:29:05;96658.59;;;40.05;22.46
57763;BME280;43592;42.524;12.052;2022-07-15T12:31:32;96660.84;;;39.93;23.63
57763;BME280;43592;42.524;12.052;2022-07-15T12:33:58;96660.28;;;39.36;23.88
57763;BME280;43592;42.524;12.052;2022-07-15T12:36:25;96667.31;;;39.56;23.74
57763;BME280;43592;42.524;12.052;2022-07-15T12:41:36;96658.03;;;39.47;24.28
57763;BME280;43592;42.524;12.052;2022-07-15T12:44:03;96653.72;;;38.95;24.86
57763;BME280;43592;42.524;12.052;2022-07-15T12:46:48;96660.00;;;39.01;23.93
57763;BME280;43592;42.524;12.052;2022-07-15T12:51:58;96664.81;;;39.52;24.38
57763;BME280;43592;42.524;12.052;2022-07-15T12:54:37;96674.31;;;39.62;23.56
57763;BME280;43592;42.524;12.052;2022-07-15T12:57:02;96666.53;;;39.87;23.98
57763;BME280;43592;42.524;12.052;2022-07-15T12:59:28;96660.56;;;40.23;23.74
57763;BME280;43592;42.524;12.052;2022-07-15T13:02:03;96660.75;;;40.52;24.84
57763;BME280;43592;42.524;12.052;2022-07-15T13:04:29;96654.50;;;40.46;23.20
57763;BME280;43592;42.524;12.052;2022-07-15T13:06:54;96652.13;;;40.50;23.88
57763;BME280;43592;42.524;12.052;2022-07-15T13:09:20;96659.16;;;39.71;23.31
57763;BME280;43592;42.524;12.052;2022-07-15T13:11:56;96663.31;;;39.83;24.31
57763;BME280;43592;42.524;12.052;2022-07-15T13:14:23;96658.78;;;39.93;24.59
57763;BME280;43592;42.524;12.052;2022-07-15T13:16:48;96650.28;;;40.12;24.05
57763;BME280;43592;42.524;12.052;2022-07-15T13:19:14;96653.25;;;39.74;24.08
57763;BME280;43592;42.524;12.052;2022-07-15T13:21:39;96650.94;;;40.05;24.17
57763;BME280;43592;42.524;12.052;2022-07-15T13:24:05;96655.25;;;39.93;23.65
57763;BME280;43592;42.524;12.052;2022-07-15T13:26:30;96657.63;;;39.57;23.61
57763;BME280;43592;42.524;12.052;2022-07-15T13:28:56;96649.09;;;39.81;23.83